Time;durP1;ratioP1;P1;durP2;ratioP2;P2;SDS_P1;SDS_P2;PMS_P1;PMS_P2;Temp;Humidity;BMP_temperature;BMP_pressure;BME280_temperature;BME280_humidity;BME280_pressure;Samples;Min_cycle;Max_cycle;Signal;HPM_P1;HPM_P2
2022/11/11 00:01:11;;;;;;;15.52;9.48;;;9.50;99.90;;;;;;5113964;28;20027;-75
2022/11/11 00:03:36;;;;;;;17.25;9.90;;;9.50;99.90;;;;;;5112196;28;20114;-75
2022/11/11 00:06:04;;;;;;;17.08;9.68;;;9.50;99.90;;;;;;5113562;28;20103;-75
2022/11/11 00:08:30;;;;;;;15.82;9.45;;;9.50;99.90;;;;;;5112791;28;20035;-75
2022/11/11 00:11:08;;;;;;;13.45;9.43;;;9.40;99.90;;;;;;5113403;28;20023;-75
2022/11/11 00:13:35;;;;;;;17.42;9.77;;;9.40;99.90;;;;;;5113151;28;20039;-75
2022/11/11 00:16:12;;;;;;;17.92;10.00;;;9.40;99.90;;;;;;5113432;28;20028;-75
2022/11/11 00:26:45;;;;;;;16.58;9.63;;;9.40;99.90;;;;;;5112926;28;20088;-75
2022/11/11 00:29:11;;;;;;;19.38;10.60;;;9.40;99.90;;;;;;5113290;28;20027;-75
2022/11/11 00:32:21;;;;;;;16.20;10.73;;;9.40;99.90;;;;;;5112278;28;20027;-75
2022/11/11 00:34:22;;;;;;;16.15;10.30;;;9.40;99.90;;;;;;5112236;28;20134;-75
2022/11/11 00:36:48;;;;;;;18.85;10.80;;;9.40;99.90;;;;;;5112627;28;20459;-75
2022/11/11 00:39:13;;;;;;;20.48;10.18;;;9.40;99.90;;;;;;5113570;28;20484;-75
2022/11/11 00:41:39;;;;;;;18.08;10.98;;;9.40;99.90;;;;;;5112697;28;20026;-75
2022/11/11 00:44:05;;;;;;;19.77;10.27;;;9.40;99.90;;;;;;5112925;28;20028;-75
2022/11/11 00:51:58;;;;;;;16.67;10.07;;;9.30;99.90;;;;;;5113197;28;20076;-75
2022/11/11 00:54:24;;;;;;;16.63;10.18;;;9.30;99.90;;;;;;5112695;28;20391;-75
2022/11/11 00:56:50;;;;;;;19.75;10.38;;;9.30;99.90;;;;;;5112581;28;20039;-75
2022/11/11 00:59:15;;;;;;;15.32;10.15;;;9.40;99.90;;;;;;5112919;28;20020;-75
2022/11/11 01:01:41;;;;;;;15.07;10.00;;;9.40;99.90;;;;;;5112430;28;20020;-74
2022/11/11 01:04:06;;;;;;;18.55;9.55;;;9.30;99.90;;;;;;5112855;28;20325;-75
2022/11/11 01:06:32;;;;;;;17.95;10.30;;;9.30;99.90;;;;;;5112645;28;20046;-75
2022/11/11 01:09:03;;;;;;;18.13;9.98;;;9.30;99.90;;;;;;5112337;28;20035;-75
2022/11/11 01:11:28;;;;;;;15.05;9.38;;;9.30;99.90;;;;;;5112560;28;20051;-74
2022/11/11 01:13:54;;;;;;;16.38;10.05;;;9.30;99.90;;;;;;5112219;28;20078;-74
2022/11/11 01:16:22;;;;;;;16.10;10.05;;;9.30;99.90;;;;;;5112441;28;20440;-74
2022/11/11 01:18:50;;;;;;;18.58;10.13;;;9.30;99.90;;;;;;5110872;28;20031;-75
2022/11/11 01:21:23;;;;;;;17.08;9.82;;;9.30;99.90;;;;;;5112235;28;20023;-74
2022/11/11 01:23:51;;;;;;;16.33;10.13;;;9.30;99.90;;;;;;5112277;28;20015;-74
2022/11/11 01:26:24;;;;;;;15.95;9.60;;;9.30;99.90;;;;;;5112362;28;20313;-74
2022/11/11 01:28:53;;;;;;;14.15;9.75;;;9.20;99.90;;;;;;5112593;28;20032;-74
2022/11/11 01:31:20;;;;;;;14.45;10.23;;;9.20;99.90;;;;;;5112354;28;20485;-74
2022/11/11 01:33:46;;;;;;;17.20;10.57;;;9.20;99.90;;;;;;5111808;28;20067;-75
2022/11/11 01:36:24;;;;;;;15.50;10.15;;;9.20;99.90;;;;;;5112536;28;20023;-74
2022/11/11 01:38:55;;;;;;;17.15;10.25;;;9.20;99.90;;;;;;5112055;28;20111;-74
2022/11/11 01:41:32;;;;;;;18.10;10.50;;;9.10;99.90;;;;;;5112581;28;20020;-74
2022/11/11 01:44:10;;;;;;;16.40;11.07;;;9.10;99.90;;;;;;5112189;28;20031;-74
2022/11/11 01:47:00;;;;;;;16.05;10.95;;;9.10;99.90;;;;;;5115973;28;20038;-74
2022/11/11 01:49:35;;;;;;;14.82;9.30;;;9.10;99.90;;;;;;5116685;28;20465;-76
2022/11/11 01:52:01;;;;;;;16.23;9.57;;;9.10;99.90;;;;;;5115908;28;20051;-74
2022/11/11 01:54:34;;;;;;;14.48;10.02;;;9.00;99.90;;;;;;5116222;28;20055;-75
2022/11/11 01:57:10;;;;;;;17.55;10.07;;;9.10;99.90;;;;;;5115933;28;20027;-76
2022/11/11 01:59:39;;;;;;;15.13;9.73;;;9.00;99.90;;;;;;5116245;28;20472;-75
2022/11/11 02:02:13;;;;;;;15.02;9.60;;;9.00;99.90;;;;;;5115938;28;20078;-75
2022/11/11 02:07:41;;;;;;;14.82;10.02;;;9.00;99.90;;;;;;5113179;28;20523;-75
2022/11/11 02:10:08;;;;;;;13.50;9.68;;;9.00;99.90;;;;;;5115531;27;20040;-76
2022/11/11 02:15:18;;;;;;;15.48;10.65;;;9.00;99.90;;;;;;5115738;28;20210;-76
2022/11/11 02:17:47;;;;;;;19.63;10.00;;;8.90;99.90;;;;;;5115759;28;20035;-73
2022/11/11 02:20:16;;;;;;;16.13;9.52;;;8.90;99.90;;;;;;5115237;28;20024;-74
2022/11/11 02:23:05;;;;;;;18.95;9.88;;;8.90;99.90;;;;;;5115386;28;20023;-75
2022/11/11 02:25:32;;;;;;;19.17;10.75;;;8.90;99.90;;;;;;5115392;28;20432;-75
2022/11/11 02:28:02;;;;;;;16.63;10.10;;;8.80;99.90;;;;;;5114894;28;20064;-75
2022/11/11 02:30:28;;;;;;;21.40;10.95;;;8.90;99.90;;;;;;5115623;28;20031;-75
2022/11/11 02:32:54;;;;;;;15.60;9.43;;;8.80;99.90;;;;;;5113549;28;20107;-75
2022/11/11 02:35:36;;;;;;;16.35;10.32;;;8.80;99.90;;;;;;5113901;28;20054;-75
2022/11/11 02:38:07;;;;;;;17.10;11.07;;;8.80;99.90;;;;;;5115080;28;20120;-74
2022/11/11 02:40:35;;;;;;;;;;;8.80;99.90;;;;;;5115803;28;20024;-75
2022/11/11 02:43:01;;;;;;;19.83;9.98;;;8.80;99.90;;;;;;5115288;28;19904;-74
2022/11/11 02:45:27;;;;;;;15.20;9.98;;;8.70;99.90;;;;;;5115391;28;20103;-74
2022/11/11 02:47:52;;;;;;;16.83;10.52;;;8.70;99.90;;;;;;5114872;28;20452;-74
2022/11/11 02:50:18;;;;;;;14.45;9.88;;;8.70;99.90;;;;;;5115296;28;20045;-76
2022/11/11 02:52:44;;;;;;;19.10;10.98;;;8.70;99.90;;;;;;5114834;27;20107;-76
2022/11/11 02:55:10;;;;;;;17.83;10.63;;;8.70;99.90;;;;;;5114153;28;20027;-76
2022/11/11 02:57:36;;;;;;;18.05;10.48;;;8.70;99.90;;;;;;5115088;28;20034;-76
2022/11/11 03:00:03;;;;;;;14.85;10.40;;;8.60;99.90;;;;;;5114769;28;20031;-75
2022/11/11 03:02:29;;;;;;;14.00;10.10;;;8.70;99.90;;;;;;5115585;28;20023;-75
2022/11/11 03:04:55;;;;;;;18.95;11.00;;;8.70;99.90;;;;;;5114306;28;20028;-75
2022/11/11 03:07:21;;;;;;;16.88;11.32;;;8.70;99.90;;;;;;5114677;28;20387;-75
2022/11/11 03:09:47;;;;;;;14.00;10.32;;;8.70;99.90;;;;;;5114300;28;20032;-76
2022/11/11 03:12:13;;;;;;;16.25;10.40;;;8.70;99.90;;;;;;5114731;28;20019;-75
2022/11/11 03:14:39;;;;;;;15.63;10.02;;;8.70;99.90;;;;;;5114495;28;20368;-75
2022/11/11 03:19:49;;;;;;;18.38;10.05;;;8.70;99.90;;;;;;5114197;28;20108;-75
2022/11/11 03:22:14;;;;;;;15.57;9.30;;;8.70;99.90;;;;;;5114830;28;20517;-75
2022/11/11 03:27:24;;;;;;;14.73;8.85;;;8.60;99.90;;;;;;5114430;28;20086;-76
2022/11/11 03:29:50;;;;;;;12.35;8.77;;;8.70;99.90;;;;;;5114197;28;20059;-74
2022/11/11 03:32:15;;;;;;;12.63;8.80;;;8.60;99.90;;;;;;5114514;28;20448;-75
2022/11/11 03:34:41;;;;;;;16.75;10.25;;;8.60;99.90;;;;;;5114387;28;20075;-75
2022/11/11 03:39:53;;;;;;;13.90;9.25;;;8.60;99.90;;;;;;5113786;28;20336;-76
2022/11/11 03:42:19;;;;;;;12.70;9.15;;;8.60;99.90;;;;;;5112885;28;20024;-75
2022/11/11 03:44:45;;;;;;;15.93;9.63;;;8.60;99.90;;;;;;5114636;28;20051;-76
2022/11/11 03:47:10;;;;;;;17.45;9.02;;;8.60;99.90;;;;;;5113870;28;20034;-75
2022/11/11 03:49:36;;;;;;;13.63;9.38;;;8.60;99.90;;;;;;5114096;28;20031;-74
2022/11/11 03:52:01;;;;;;;13.40;9.10;;;8.50;99.90;;;;;;5114077;28;20030;-74
2022/11/11 03:54:27;;;;;;;13.95;8.57;;;8.50;99.90;;;;;;5113966;28;20078;-75
2022/11/11 03:57:29;;;;;;;14.57;9.13;;;8.50;99.90;;;;;;5113953;28;20031;-75
2022/11/11 03:59:38;;;;;;;13.82;9.60;;;8.50;99.90;;;;;;5113791;28;20031;-74
2022/11/11 04:10:22;;;;;;;12.93;9.50;;;8.40;99.90;;;;;;5113534;28;20494;-74
2022/11/11 04:23:55;;;;;;;19.67;11.45;;;8.40;99.90;;;;;;5121967;27;20026;-74
2022/11/11 04:26:21;;;;;;;17.23;10.38;;;8.40;99.90;;;;;;5131515;27;20024;-75
2022/11/11 04:31:31;;;;;;;15.35;10.85;;;8.40;99.90;;;;;;5112304;28;20118;-76
2022/11/11 04:33:57;;;;;;;16.65;10.80;;;8.40;99.90;;;;;;5112210;28;20075;-75
2022/11/11 04:36:22;;;;;;;17.15;11.13;;;8.40;99.90;;;;;;5112635;28;20119;-75
2022/11/11 04:41:32;;;;;;;18.63;11.75;;;8.40;99.90;;;;;;5112903;28;20038;-75
2022/11/11 04:46:42;;;;;;;21.60;11.13;;;8.50;99.90;;;;;;5113096;28;20085;-75
2022/11/11 04:49:07;;;;;;;15.48;10.98;;;8.50;99.90;;;;;;5112711;28;20028;-75
2022/11/11 04:54:17;;;;;;;16.48;11.35;;;8.50;99.90;;;;;;5112610;28;20042;-75
2022/11/11 04:56:49;;;;;;;15.55;10.65;;;8.60;99.90;;;;;;5113240;28;20031;-75
2022/11/11 04:59:19;;;;;;;15.10;10.57;;;8.50;99.90;;;;;;5112650;28;20310;-75
2022/11/11 05:04:43;;;;;;;13.93;9.75;;;8.50;99.90;;;;;;5100043;28;20119;-75
2022/11/11 05:09:53;;;;;;;17.65;10.43;;;8.50;99.90;;;;;;5112705;28;20089;-75
2022/11/11 05:12:18;;;;;;;16.77;10.20;;;8.50;99.90;;;;;;5117205;28;20464;-75
2022/11/11 05:22:56;;;;;;;18.13;9.70;;;8.50;99.90;;;;;;5137321;27;20490;-75
2022/11/11 05:25:24;;;;;;;16.98;10.23;;;8.50;99.90;;;;;;5136159;27;20023;-75
2022/11/11 05:27:53;;;;;;;15.73;9.38;;;8.50;99.90;;;;;;5137354;27;20110;-75
2022/11/11 05:30:21;;;;;;;14.35;10.38;;;8.50;99.90;;;;;;5135736;27;20102;-75
2022/11/11 05:32:47;;;;;;;18.05;9.95;;;8.50;99.90;;;;;;5137341;27;20079;-75
2022/11/11 05:35:13;;;;;;;12.80;8.98;;;8.50;99.90;;;;;;5136965;27;20129;-75
2022/11/11 05:37:40;;;;;;;13.88;9.13;;;8.50;99.90;;;;;;5137328;27;20379;-75
2022/11/11 05:40:06;;;;;;;18.77;12.50;;;8.50;99.90;;;;;;5136529;27;20106;-75
2022/11/11 05:42:32;;;;;;;18.08;10.52;;;8.40;99.90;;;;;;5136861;27;20491;-75
2022/11/11 05:44:58;;;;;;;15.75;9.43;;;8.40;99.90;;;;;;5137341;27;20031;-75
2022/11/11 05:47:23;;;;;;;15.35;9.82;;;8.40;99.90;;;;;;5136790;27;20472;-75
2022/11/11 05:49:49;;;;;;;13.63;9.73;;;8.40;99.90;;;;;;5137240;27;20106;-75
2022/11/11 05:52:16;;;;;;;16.55;9.05;;;8.40;99.90;;;;;;5136182;27;20049;-75
2022/11/11 05:54:42;;;;;;;16.60;9.18;;;8.40;99.90;;;;;;5136967;27;20019;-75
2022/11/11 05:57:08;;;;;;;13.05;8.25;;;8.40;99.90;;;;;;5135834;27;20027;-75
2022/11/11 05:59:34;;;;;;;16.55;8.95;;;8.40;99.90;;;;;;5136421;27;20376;-75
2022/11/11 06:01:59;;;;;;;12.43;8.50;;;8.50;99.90;;;;;;5136624;27;20060;-75
2022/11/11 06:04:25;;;;;;;14.70;8.93;;;8.50;99.90;;;;;;5136382;27;20452;-75
2022/11/11 06:06:51;;;;;;;15.50;8.73;;;8.50;99.90;;;;;;5136367;27;20033;-75
2022/11/11 06:09:17;;;;;;;15.13;8.90;;;8.50;99.90;;;;;;5135869;27;20101;-75
2022/11/11 06:11:43;;;;;;;13.77;8.93;;;8.50;99.90;;;;;;5134394;27;20457;-75
2022/11/11 06:14:08;;;;;;;16.85;8.98;;;8.50;99.90;;;;;;5135835;27;20027;-75
2022/11/11 06:16:34;;;;;;;11.52;9.18;;;8.50;99.90;;;;;;5136397;27;20193;-75
2022/11/11 06:19:00;;;;;;;14.45;9.38;;;8.50;99.90;;;;;;5125816;27;20020;-75
2022/11/11 06:21:31;;;;;;;19.85;9.82;;;8.50;99.90;;;;;;5115055;28;20027;-75
2022/11/11 06:23:56;;;;;;;20.55;9.88;;;8.50;99.90;;;;;;5115512;28;20111;-75
2022/11/11 06:26:22;;;;;;;12.60;10.38;;;8.50;99.90;;;;;;5114765;28;20103;-74
2022/11/11 06:28:50;;;;;;;18.20;10.50;;;8.50;99.90;;;;;;5114363;28;20459;-74
2022/11/11 06:31:18;;;;;;;19.75;10.48;;;8.50;99.90;;;;;;5115075;28;20027;-74
2022/11/11 06:33:44;;;;;;;20.33;10.93;;;8.50;99.90;;;;;;5115313;28;20059;-74
2022/11/11 06:36:13;;;;;;;25.05;14.10;;;8.50;99.90;;;;;;5115293;28;20028;-74
2022/11/11 06:38:39;;;;;;;26.25;14.52;;;8.50;99.90;;;;;;5115123;28;20495;-74
2022/11/11 06:41:07;;;;;;;21.45;15.18;;;8.50;99.90;;;;;;5114765;28;20047;-76
2022/11/11 06:43:33;;;;;;;22.90;14.38;;;8.50;99.90;;;;;;5115214;28;20093;-76
2022/11/11 06:45:59;;;;;;;26.02;14.95;;;8.50;99.90;;;;;;5115500;28;20015;-75
2022/11/11 06:48:27;;;;;;;26.10;13.82;;;8.50;99.90;;;;;;5114821;28;20399;-75
2022/11/11 06:50:54;;;;;;;26.13;15.13;;;8.50;99.90;;;;;;5115315;28;20035;-75
2022/11/11 06:53:21;;;;;;;22.45;15.85;;;8.50;99.90;;;;;;5113551;28;20062;-75
2022/11/11 06:55:47;;;;;;;22.42;14.43;;;8.50;99.90;;;;;;5115119;27;20079;-75
2022/11/11 06:58:15;;;;;;;26.17;14.43;;;8.50;99.90;;;;;;5114730;28;20028;-76
2022/11/11 07:00:41;;;;;;;23.60;14.90;;;8.40;99.90;;;;;;5115044;28;20072;-75
2022/11/11 07:03:09;;;;;;;24.80;15.02;;;8.40;99.90;;;;;;5114637;28;20015;-75
2022/11/11 07:05:35;;;;;;;23.48;14.35;;;8.40;99.90;;;;;;5114869;28;20388;-75
2022/11/11 07:08:02;;;;;;;24.33;14.63;;;8.40;99.90;;;;;;5114610;28;20038;-74
2022/11/11 07:10:28;;;;;;;23.83;14.90;;;8.40;99.90;;;;;;5114125;28;20020;-75
2022/11/11 07:12:54;;;;;;;23.55;14.50;;;8.40;99.90;;;;;;5114902;28;20051;-74
2022/11/11 07:15:20;;;;;;;19.48;14.27;;;8.40;99.90;;;;;;5114412;28;20023;-75
2022/11/11 07:17:45;;;;;;;22.30;14.65;;;8.50;99.90;;;;;;5114670;28;20455;-75
2022/11/11 07:20:11;;;;;;;22.58;14.25;;;8.50;99.90;;;;;;5114126;28;20452;-75
2022/11/11 07:22:37;;;;;;;23.23;14.52;;;8.60;99.90;;;;;;5114727;28;20459;-75
2022/11/11 07:25:03;;;;;;;20.58;14.13;;;8.70;99.90;;;;;;5114365;28;20028;-76
2022/11/11 07:27:28;;;;;;;22.65;14.13;;;8.80;99.90;;;;;;5114018;28;20032;-76
2022/11/11 07:29:54;;;;;;;27.55;15.40;;;9.00;99.90;;;;;;5114556;28;20050;-75
2022/11/11 07:32:20;;;;;;;20.75;13.90;;;9.10;99.90;;;;;;5114040;28;20471;-75
2022/11/11 07:34:45;;;;;;;23.67;13.57;;;9.20;99.90;;;;;;5114126;28;20450;-75
2022/11/11 07:37:11;;;;;;;18.90;13.70;;;9.30;99.90;;;;;;5114222;28;20082;-76
2022/11/11 07:39:36;;;;;;;24.63;12.90;;;9.40;99.90;;;;;;5114218;28;20032;-75
2022/11/11 07:42:02;;;;;;;20.90;13.38;;;9.50;99.90;;;;;;5113650;28;20027;-77
2022/11/11 07:44:28;;;;;;;18.83;13.13;;;9.50;99.90;;;;;;5113615;28;20035;-75
2022/11/11 07:46:54;;;;;;;26.35;14.68;;;9.70;99.90;;;;;;5113848;28;20028;-75
2022/11/11 07:49:19;;;;;;;33.38;14.65;;;9.80;99.90;;;;;;5113731;28;20031;-75
2022/11/11 07:51:45;;;;;;;23.10;13.23;;;9.90;99.90;;;;;;5114000;28;20020;-75
2022/11/11 07:54:10;;;;;;;27.60;15.38;;;10.00;99.90;;;;;;5113285;28;20026;-74
2022/11/11 07:56:36;;;;;;;23.30;14.18;;;10.10;99.90;;;;;;5113907;28;20036;-75
2022/11/11 07:59:02;;;;;;;22.17;13.80;;;10.20;99.90;;;;;;5114041;28;20028;-75
2022/11/11 08:01:27;;;;;;;22.45;14.00;;;10.20;99.90;;;;;;5113588;28;20020;-76
2022/11/11 08:03:53;;;;;;;23.33;14.32;;;10.30;99.90;;;;;;5113467;28;20027;-76
2022/11/11 08:06:20;;;;;;;21.20;13.05;;;10.30;99.90;;;;;;5113352;28;20406;-76
2022/11/11 08:08:47;;;;;;;18.42;12.35;;;10.40;99.90;;;;;;5113860;28;20027;-76
2022/11/11 08:11:13;;;;;;;23.13;13.55;;;10.40;99.90;;;;;;5113001;28;20089;-76
2022/11/11 08:13:39;;;;;;;24.83;13.25;;;10.50;99.90;;;;;;5113692;28;20091;-75
2022/11/11 08:16:10;;;;;;;20.92;13.38;;;10.50;99.90;;;;;;5113530;28;20028;-76
2022/11/11 08:18:36;;;;;;;15.57;11.27;;;10.60;99.90;;;;;;5113175;28;20041;-75
2022/11/11 08:21:03;;;;;;;18.20;10.40;;;10.70;99.90;;;;;;5113832;28;20099;-76
2022/11/11 08:23:32;;;;;;;14.43;10.30;;;10.70;99.90;;;;;;5113502;28;20490;-77
2022/11/11 08:26:02;;;;;;;16.10;9.70;;;10.80;99.90;;;;;;5113714;28;20168;-76
2022/11/11 08:28:30;;;;;;;22.75;10.45;;;10.90;99.90;;;;;;5113509;28;20092;-76
2022/11/11 08:30:58;;;;;;;17.80;11.10;;;10.90;99.90;;;;;;5112833;28;20032;-76
2022/11/11 08:33:25;;;;;;;18.75;11.60;;;11.00;99.90;;;;;;5112984;28;20039;-76
2022/11/11 08:35:54;;;;;;;18.85;12.30;;;11.00;99.90;;;;;;5113551;28;20024;-76
2022/11/11 08:38:23;;;;;;;20.65;12.38;;;11.10;99.90;;;;;;5113121;28;20035;-76
2022/11/11 08:40:50;;;;;;;22.67;12.75;;;11.20;99.90;;;;;;5112830;28;20380;-76
2022/11/11 08:43:15;;;;;;;19.05;11.68;;;11.20;99.90;;;;;;5113323;28;20478;-76
2022/11/11 08:45:41;;;;;;;18.52;11.98;;;11.20;99.90;;;;;;5113376;28;20098;-76
2022/11/11 08:48:11;;;;;;;17.00;11.30;;;11.20;99.90;;;;;;5112776;28;20119;-76
2022/11/11 08:50:40;;;;;;;23.90;13.30;;;11.30;99.90;;;;;;5111128;28;20036;-75
2022/11/11 08:53:07;;;;;;;23.17;12.02;;;11.30;99.90;;;;;;5112220;28;20033;-75
2022/11/11 08:55:34;;;;;;;22.55;13.38;;;11.40;99.90;;;;;;5111998;28;20081;-75
2022/11/11 08:58:01;;;;;;;27.95;12.93;;;11.40;99.90;;;;;;5113249;28;20375;-75
2022/11/11 09:00:27;;;;;;;25.73;12.73;;;11.40;99.90;;;;;;5112981;28;20372;-75
2022/11/11 09:02:53;;;;;;;21.90;12.80;;;11.40;99.90;;;;;;5112543;28;20115;-75
2022/11/11 09:05:20;;;;;;;22.92;13.07;;;11.50;99.90;;;;;;5112000;28;20083;-75
2022/11/11 09:07:46;;;;;;;26.95;13.43;;;11.60;99.90;;;;;;5112867;28;20036;-75
2022/11/11 09:10:11;;;;;;;19.65;12.05;;;11.60;99.90;;;;;;5112527;28;20035;-76
2022/11/11 09:12:37;;;;;;;21.52;12.15;;;11.70;99.90;;;;;;5111429;28;20031;-76
2022/11/11 09:15:03;;;;;;;17.63;11.18;;;11.80;99.90;;;;;;5111506;28;20462;-75
2022/11/11 09:17:29;;;;;;;17.25;10.13;;;12.00;99.90;;;;;;5104287;28;20101;-75
2022/11/11 09:19:55;;;;;;;19.67;10.57;;;12.10;99.90;;;;;;5091915;28;20024;-75
2022/11/11 09:22:21;;;;;;;17.73;9.43;;;12.20;99.90;;;;;;5091509;28;20031;-75
2022/11/11 09:24:47;;;;;;;16.00;9.75;;;12.30;99.90;;;;;;5091879;28;20544;-75
2022/11/11 09:27:12;;;;;;;15.20;8.98;;;12.50;99.90;;;;;;5092145;28;20058;-77
2022/11/11 09:29:38;;;;;;;18.55;10.02;;;12.60;99.90;;;;;;5092217;28;20377;-75
2022/11/11 09:32:04;;;;;;;25.38;13.70;;;12.60;99.90;;;;;;5092317;28;20028;-75
2022/11/11 09:34:30;;;;;;;21.85;13.45;;;12.70;99.90;;;;;;5091507;28;20136;-76
2022/11/11 09:36:55;;;;;;;24.40;13.13;;;12.90;99.90;;;;;;5090679;28;20475;-76
2022/11/11 09:39:21;;;;;;;19.35;11.98;;;12.90;99.90;;;;;;5091862;28;20031;-75
2022/11/11 09:42:32;;;;;;;21.98;11.93;;;13.00;99.90;;;;;;5091754;28;20103;-76
2022/11/11 09:45:22;;;;;;;17.55;11.80;;;13.00;99.90;;;;;;5029288;28;20056;-76
2022/11/11 09:47:57;;;;;;;19.40;12.50;;;13.10;99.90;;;;;;5088803;28;20044;-76
2022/11/11 09:50:27;;;;;;;21.83;12.05;;;13.10;99.90;;;;;;5091210;28;20051;-75
2022/11/11 09:53:14;;;;;;;18.73;11.65;;;13.20;99.90;;;;;;5092275;28;20028;-76
2022/11/11 09:55:46;;;;;;;19.88;11.48;;;13.20;99.90;;;;;;5091927;28;20273;-76
2022/11/11 09:58:15;;;;;;;23.27;11.73;;;13.30;99.90;;;;;;5092022;28;20024;-74
2022/11/11 10:00:45;;;;;;;17.27;11.25;;;13.40;99.90;;;;;;5091567;28;20024;-76
2022/11/11 10:03:17;;;;;;;20.83;12.40;;;13.40;99.90;;;;;;5091994;28;20021;-75
2022/11/11 10:05:45;;;;;;;22.10;12.98;;;13.40;99.70;;;;;;5094356;28;20035;-75
2022/11/11 10:08:23;;;;;;;22.40;12.48;;;13.40;99.90;;;;;;5095488;28;20036;-75
2022/11/11 10:10:51;;;;;;;24.65;11.63;;;13.40;99.80;;;;;;5107356;28;20355;-76
2022/11/11 10:13:27;;;;;;;21.27;11.75;;;13.40;99.90;;;;;;5116219;28;20024;-76
2022/11/11 10:16:24;;;;;;;21.63;11.55;;;13.40;99.90;;;;;;5115024;28;20031;-74
2022/11/11 10:19:04;;;;;;;20.60;11.68;;;13.40;99.90;;;;;;5115686;28;20058;-75
2022/11/11 10:21:39;;;;;;;25.53;12.47;;;13.40;99.40;;;;;;5115492;28;20028;-75
2022/11/11 10:24:12;;;;;;;22.65;12.00;;;13.30;99.90;;;;;;5115910;28;20111;-75
2022/11/11 10:26:44;;;;;;;20.38;12.63;;;13.30;99.90;;;;;;5115178;28;20036;-75
2022/11/11 10:29:16;;;;;;;20.38;11.88;;;13.30;99.10;;;;;;5115842;28;20028;-75
2022/11/11 10:31:44;;;;;;;25.67;12.38;;;13.30;99.20;;;;;;5115234;28;20099;-74
2022/11/11 10:34:11;;;;;;;23.67;12.48;;;13.30;98.40;;;;;;5114026;28;20052;-75
2022/11/11 10:36:50;;;;;;;29.85;12.88;;;13.20;99.20;;;;;;5115200;28;20425;-74
2022/11/11 10:39:52;;;;;;;35.92;12.80;;;13.20;99.90;;;;;;5115470;28;20532;-76
2022/11/11 10:42:19;;;;;;;26.63;13.82;;;13.30;99.90;;;;;;5115249;28;20103;-76
2022/11/11 10:44:45;;;;;;;21.15;12.95;;;13.40;99.90;;;;;;5113725;28;20028;-75
2022/11/11 10:47:16;;;;;;;28.23;12.70;;;13.50;99.60;;;;;;5115267;28;20076;-74
2022/11/11 10:49:52;;;;;;;;;;;13.60;99.90;;;;;;5115352;28;20474;-75
2022/11/11 10:52:38;;;;;;;27.17;12.90;;;13.80;99.90;;;;;;5115382;28;19904;-76
2022/11/11 10:55:28;;;;;;;26.20;13.18;;;14.00;99.90;;;;;;5115606;28;20081;-75
2022/11/11 10:58:00;;;;;;;26.23;12.25;;;14.10;99.50;;;;;;5114978;28;20030;-76
2022/11/11 11:00:25;;;;;;;26.42;13.18;;;14.20;97.90;;;;;;5114675;28;20190;-76
2022/11/11 11:03:23;;;;;;;24.73;13.55;;;14.20;97.30;;;;;;5113437;28;20055;-76
2022/11/11 11:06:20;;;;;;;29.60;12.70;;;14.40;96.30;;;;;;5085751;28;20032;-76
2022/11/11 11:08:58;;;;;;;24.33;13.32;;;14.50;96.70;;;;;;5108636;28;20040;-76
2022/11/11 11:11:32;;;;;;;17.73;12.32;;;14.60;96.00;;;;;;5114497;28;20023;-75
2022/11/11 11:14:09;;;;;;;20.85;12.20;;;14.70;95.60;;;;;;5115011;28;20103;-75
2022/11/11 11:16:43;;;;;;;21.10;13.30;;;14.80;94.60;;;;;;5113226;28;20103;-75
2022/11/11 11:19:21;;;;;;;21.05;12.07;;;14.90;94.50;;;;;;5114941;28;20103;-76
2022/11/11 11:21:55;;;;;;;18.83;12.20;;;15.10;94.50;;;;;;5114249;28;20049;-75
2022/11/11 11:24:30;;;;;;;18.77;11.73;;;15.20;94.40;;;;;;5114844;28;20028;-75
2022/11/11 11:26:58;;;;;;;19.70;11.93;;;15.30;94.30;;;;;;5114312;28;20031;-75
2022/11/11 11:29:38;;;;;;;18.40;12.02;;;15.30;93.30;;;;;;5114292;28;20435;-75
2022/11/11 11:32:12;;;;;;;20.08;11.30;;;15.30;92.80;;;;;;5114556;28;20329;-75
2022/11/11 11:34:57;;;;;;;20.42;11.40;;;15.40;92.70;;;;;;5113720;28;20393;-75
2022/11/11 11:37:24;;;;;;;17.92;11.30;;;15.50;93.20;;;;;;5114519;28;20081;-76
2022/11/11 11:40:01;;;;;;;19.17;12.00;;;15.50;93.10;;;;;;5114006;28;20019;-76
2022/11/11 11:42:35;;;;;;;17.33;9.90;;;15.60;93.90;;;;;;5114364;28;20034;-76
2022/11/11 11:45:24;;;;;;;13.55;9.50;;;15.70;94.40;;;;;;5113888;28;20376;-76
2022/11/11 11:48:32;;;;;;;15.57;9.25;;;15.80;92.90;;;;;;5113542;28;20031;-75
2022/11/11 11:51:10;;;;;;;12.48;7.32;;;15.90;92.70;;;;;;5084680;27;20050;-74
2022/11/11 11:54:01;;;;;;;9.48;7.25;;;16.00;93.00;;;;;;5113492;28;20126;-75
2022/11/11 11:56:41;;;;;;;14.50;8.05;;;16.10;93.10;;;;;;5113893;28;20028;-75
2022/11/11 11:59:09;;;;;;;11.83;6.60;;;16.20;92.20;;;;;;5113642;28;20019;-76
2022/11/11 12:01:44;;;;;;;9.35;6.40;;;16.20;92.30;;;;;;5113102;28;20514;-75
2022/11/11 12:04:18;;;;;;;12.50;6.65;;;16.20;90.80;;;;;;5113890;28;20024;-75
2022/11/11 12:07:12;;;;;;;11.25;7.03;;;16.30;91.10;;;;;;5112720;28;20059;-76
2022/11/11 12:10:00;;;;;;;10.75;5.88;;;16.30;90.80;;;;;;5093019;28;20024;-76
2022/11/11 12:12:32;;;;;;;10.88;6.05;;;16.30;90.90;;;;;;5093068;28;20118;-75
2022/11/11 12:15:21;;;;;;;10.55;6.20;;;16.30;91.00;;;;;;5093193;28;20427;-74
2022/11/11 12:18:12;;;;;;;10.82;6.05;;;16.30;90.50;;;;;;5092885;28;20028;-76
2022/11/11 12:20:41;;;;;;;14.07;5.50;;;16.10;90.10;;;;;;5093031;28;20054;-74
2022/11/11 12:23:21;;;;;;;8.95;4.78;;;16.00;90.50;;;;;;5093038;28;20107;-75
2022/11/11 12:25:50;;;;;;;10.73;5.57;;;16.00;90.70;;;;;;5092778;28;20023;-75
2022/11/11 12:28:37;;;;;;;12.93;5.57;;;15.90;90.80;;;;;;5092688;28;20032;-75
2022/11/11 12:31:12;;;;;;;13.85;5.30;;;15.80;91.30;;;;;;5093047;28;20024;-75
2022/11/11 12:34:15;;;;;;;11.23;4.80;;;15.80;91.00;;;;;;5092158;28;20020;-76
2022/11/11 12:36:50;;;;;;;9.35;4.80;;;15.70;91.40;;;;;;5092170;28;20020;-74
2022/11/11 12:39:28;;;;;;;9.65;4.85;;;15.60;92.00;;;;;;5092808;28;20020;-75
2022/11/11 12:41:53;;;;;;;8.25;4.57;;;15.40;91.30;;;;;;5092626;28;20043;-75
2022/11/11 12:44:30;;;;;;;9.07;4.20;;;15.40;92.00;;;;;;5092807;28;20031;-74
2022/11/11 12:47:32;;;;;;;10.43;4.38;;;15.40;92.10;;;;;;5092049;28;20039;-75
2022/11/11 12:50:23;;;;;;;9.77;5.00;;;15.30;92.20;;;;;;5092919;28;20063;-76
2022/11/11 12:53:14;;;;;;;7.03;4.65;;;15.30;92.10;;;;;;5092301;28;20024;-75
2022/11/11 12:55:45;;;;;;;9.00;4.60;;;15.20;92.20;;;;;;5092178;28;20028;-75
2022/11/11 12:58:32;;;;;;;10.82;5.55;;;15.10;92.60;;;;;;5092639;28;20475;-75
2022/11/11 13:01:03;;;;;;;9.32;5.05;;;15.10;93.00;;;;;;5092348;28;20035;-76
2022/11/11 13:03:47;;;;;;;12.23;5.63;;;15.10;93.00;;;;;;5092470;28;20476;-75
2022/11/11 13:06:18;;;;;;;8.05;4.82;;;15.00;92.80;;;;;;5092080;28;20473;-74
2022/11/11 13:09:03;;;;;;;8.25;5.55;;;14.90;93.00;;;;;;5091930;28;20086;-76
2022/11/11 13:11:34;;;;;;;10.35;5.25;;;14.90;93.10;;;;;;5092310;28;20107;-75
2022/11/11 13:14:12;;;;;;;9.13;5.43;;;14.80;93.30;;;;;;5092094;28;20030;-75
2022/11/11 13:16:37;;;;;;;9.70;5.18;;;14.80;93.30;;;;;;5091607;28;20373;-74
2022/11/11 13:19:17;;;;;;;8.30;4.90;;;14.70;93.30;;;;;;5092096;28;20024;-74
2022/11/11 13:21:58;;;;;;;10.68;5.82;;;14.60;93.50;;;;;;5099417;28;20096;-75
2022/11/11 13:24:24;;;;;;;12.25;5.97;;;14.60;93.90;;;;;;5112476;28;20430;-75
2022/11/11 13:27:03;;;;;;;10.25;5.95;;;14.50;94.10;;;;;;5112263;28;20107;-76
2022/11/11 13:29:41;;;;;;;6.72;5.07;;;14.50;94.30;;;;;;5112135;28;20361;-76
2022/11/11 13:32:11;;;;;;;8.88;5.82;;;14.40;94.10;;;;;;5112568;28;20042;-75
2022/11/11 13:34:38;;;;;;;7.40;5.22;;;14.40;94.40;;;;;;5111975;28;20072;-76
2022/11/11 13:37:08;;;;;;;9.95;5.38;;;14.30;94.50;;;;;;5112436;28;20031;-75
2022/11/11 13:39:44;;;;;;;9.27;5.63;;;14.20;94.80;;;;;;5113090;28;20469;-74
2022/11/11 13:42:18;;;;;;;11.52;5.43;;;14.20;95.00;;;;;;5116993;28;20431;-75
2022/11/11 13:44:53;;;;;;;8.45;5.28;;;14.10;94.90;;;;;;5115897;28;20032;-75
2022/11/11 13:47:26;;;;;;;9.32;5.00;;;14.10;95.20;;;;;;5116428;28;20042;-75
2022/11/11 13:49:57;;;;;;;8.65;5.28;;;14.10;95.60;;;;;;5115834;28;20027;-75
2022/11/11 13:52:24;;;;;;;;;;;14.00;95.40;;;;;;5116731;28;20111;-75
2022/11/11 13:54:59;;;;;;;11.23;5.47;;;14.00;95.70;;;;;;5116036;28;19995;-75
2022/11/11 13:57:27;;;;;;;12.57;5.72;;;13.90;96.00;;;;;;5115580;28;20034;-75
2022/11/11 14:00:03;;;;;;;15.93;5.68;;;13.90;96.00;;;;;;5115609;28;20023;-75
2022/11/11 14:02:33;;;;;;;9.50;5.47;;;13.90;96.10;;;;;;5116073;28;20035;-75
2022/11/11 14:05:02;;;;;;;9.60;5.28;;;13.90;96.10;;;;;;5116037;28;20456;-76
2022/11/11 14:07:42;;;;;;;9.98;4.88;;;13.80;96.30;;;;;;5116368;28;20061;-74